Portage, Maine
Current Conditions -  °F | °C
As of 2:55 AM on Friday 19 Dec 2014 (Local Time) from KPQI Reporting Station
Overcast Overcast  
Wind Chill: 13°   Ceiling: 1500
Heat Index: 25°   Visibility: 10mi
Dew Point: 18°   Wind: 13mph
Humidity: 74%   Direction: 310°NW
Pressure: 29.72"   Gusts: 17mph
Location:  46.76°N, 68.48°W
Report Text: KPQI 190755Z AUTO 31011G15KT 10SM OVC015 M04/M08 A2972 RMK AO1
Loading
Personal Weather Stations






























Interactive Weather Map New forecast layout! Learn more

10-Day Weather Forecast

Advertisements
Track Severe Weather on mobile